CST,Max TemperatureF,Mean TemperatureF,Min TemperatureF,Max Dew PointF,MeanDew PointF,Min DewpointF,Max Humidity, Mean Humidity, Min Humidity, Max Sea Level PressureIn, Mean Sea Level PressureIn, Min Sea Level PressureIn, Max VisibilityMiles, Mean VisibilityMiles, Min VisibilityMiles, Max Wind SpeedMPH, Mean Wind SpeedMPH, Max Gust SpeedMPH,PrecipitationIn, CloudCover, Events, WindDirDegrees
2013-11-1,57,47,37,39,36,33,89,69,41,29.89,29.70,29.52,10,10,10,20,11,30,0.00,5,Rain,293
2013-11-2,54,43,32,38,34,27,90,67,36,30.14,30.06,29.90,10,10,10,14,10,20,0.00,4,,299
2013-11-3,56,44,31,35,31,24,92,63,29,30.13,30.00,29.86,10,10,10,31,13,39,0.00,0,,157
2013-11-4,54,45,36,43,39,32,91,74,57,30.16,29.98,29.86,10,10,10,20,12,25,0.00,6,Rain,191
2013-11-5,49,42,35,47,40,33,93,88,73,30.17,30.00,29.81,10,7,1,22,8,28,0.54,8,Rain,31
2013-11-6,44,36,29,34,30,26,93,79,48,30.26,30.14,29.91,10,9,2,22,15,33,0.00,3,,308
2013-11-7,46,36,26,33,27,20,94,77,37,30.33,30.29,30.23,10,10,7,16,7,22,0.00,1,,271
2013-11-8,61,44,26,36,30,22,85,62,31,30.27,29.97,29.74,10,10,10,31,11,37,0.00,0,,183
2013-11-9,56,45,34,35,32,28,75,60,39,30.32,30.07,29.86,10,10,10,22,13,31,0.00,0,,291
2013-11-10,50,37,24,32,27,21,90,64,37,30.43,30.30,30.14,10,10,10,13,7,,0.00,3,,224
2013-11-11,43,30,16,34,23,10,85,74,63,30.72,30.38,30.09,10,9,2,25,13,31,0.00,4,Snow,347
2013-11-12,32,21,10,12,10,6,82,67,36,30.85,30.74,30.55,10,10,5,14,9,,0.00,0,,278
2013-11-13,50,32,15,22,17,11,82,54,31,30.55,30.26,30.01,10,10,7,24,11,30,0.00,0,,196
2013-11-14,53,42,31,30,24,20,80,52,32,30.01,29.92,29.87,10,10,7,16,9,22,0.00,1,,217
2013-11-15,57,42,26,36,30,23,88,68,38,29.90,29.81,29.68,10,10,7,16,7,18,0.00,0,,169
2013-11-16,67,54,40,54,44,34,88,74,52,29.67,29.44,29.29,10,9,5,28,14,40,0.00,4,Rain,188
2013-11-17,51,44,37,44,38,33,90,76,65,29.98,29.58,29.31,10,10,4,20,8,26,0.18,5,Rain,304
2013-11-18,46,38,29,33,30,27,90,77,57,30.25,30.16,29.98,10,10,10,16,10,21,0.00,0,,292
2013-11-19,55,42,29,33,29,26,91,62,33,30.25,30.10,29.96,10,10,7,25,12,32,0.00,3,,149
2013-11-20,47,40,32,35,32,25,96,68,43,30.00,29.92,29.86,10,10,2,32,16,38,0.00,6,,152
2013-11-21,37,30,23,36,28,20,97,90,84,30.48,30.22,30.00,10,3,0,20,9,26,0.02,8,Fog-Snow,5
2013-11-22,24,16,9,19,12,4,87,77,57,30.65,30.57,30.48,10,10,2,18,11,22,0.00,1,Snow,309
2013-11-23,18,10,1,11,3,-4,81,71,58,30.85,30.76,30.60,10,10,7,17,11,22,0.00,0,,329
2013-11-24,27,14,0,14,7,-4,82,68,50,30.75,30.50,30.21,10,10,10,21,10,23,0.00,1,,193
2013-11-25,35,29,22,28,22,14,89,75,63,30.23,30.12,30.08,10,10,1,17,13,23,0.00,4,Snow,243
2013-11-26,30,23,15,24,14,7,87,65,44,30.37,30.26,30.14,10,10,10,26,12,33,0.00,3,,328
2013-11-27,27,17,7,16,10,3,84,69,54,30.39,30.25,30.03,10,10,10,17,8,,0.00,0,,222
2013-11-28,32,24,15,18,15,11,82,68,51,30.51,30.29,30.02,10,10,10,20,10,26,0.00,0,,333
2013-11-29,39,24,8,26,18,5,88,76,54,30.51,30.38,30.18,10,10,10,16,5,18,0.00,0,,148
2013-11-30,51,38,26,33,27,22,84,72,47,30.18,30.09,30.04,10,10,10,10,7,,0.00,0,,244